Amboy, California
Current Conditions -  °F | °C
As of 5:56 PM on Saturday 22 Nov 2014 (Local Time) from KNXP Reporting Station
Haze Haze  
Wind Chill: 21°   Ceiling: Unl
Heat Index: 21°   Visibility: 4mi
Dew Point:   Wind: 12mph
Humidity: 36%   Direction: 350°N
Pressure: 29.98"   Gusts: 21mph
Location:  34.56°N, 115.75°W
Report Text: KNXP 230156Z AUTO 35010G18KT 4SM HZ SCT017 21/05 A2998 RMK AO2 SLP129 T02060050 $
Loading
Personal Weather Stations






























Interactive Weather Map New forecast layout! Learn more

10-Day Weather Forecast

Advertisements
Track Severe Weather on mobile